Time;durP1;ratioP1;P1;durP2;ratioP2;P2;SDS_P1;SDS_P2;PMS_P1;PMS_P2;Temp;Humidity;BMP_temperature;BMP_pressure;BME280_temperature;BME280_humidity;BME280_pressure;Samples;Min_cycle;Max_cycle;Signal;HPM_P1;HPM_P2
2023/03/26 04:22:35;;;;;;;4.00;1.30;;;;;;;7.09;100.00;99375.47;5089604;28;20393;-66
2023/03/26 04:25:04;;;;;;;2.08;1.02;;;;;;;7.07;100.00;99370.34;5088349;28;20040;-66
2023/03/26 04:27:42;;;;;;;1.98;1.27;;;;;;;7.12;100.00;99371.69;5067781;28;20481;-65
2023/03/26 04:30:19;;;;;;;1.30;0.90;;;;;;;7.11;100.00;99354.97;5084916;28;20064;-65
2023/03/26 04:32:48;;;;;;;1.48;0.90;;;;;;;7.10;100.00;99350.63;5084871;28;20052;-67
2023/03/26 04:35:16;;;;;;;1.50;1.10;;;;;;;7.09;100.00;99346.34;5067795;28;20066;-67
2023/03/26 04:37:45;;;;;;;4.97;1.10;;;;;;;7.09;100.00;99341.03;5067563;28;20465;-66
2023/03/26 04:40:20;;;;;;;2.17;0.90;;;;;;;7.11;100.00;99349.66;5067663;28;20131;-66
2023/03/26 04:42:58;;;;;;;4.68;1.10;;;;;;;7.06;100.00;99346.69;5069203;28;20047;-66
2023/03/26 04:46:02;;;;;;;2.75;1.00;;;;;;;7.07;100.00;99345.69;5046540;28;20045;-65
2023/03/26 04:48:29;;;;;;;2.38;1.30;;;;;;;7.10;100.00;99339.22;5063358;28;20106;-66
2023/03/26 04:50:55;;;;;;;2.17;1.30;;;;;;;7.10;100.00;99340.03;5067558;28;20036;-66
2023/03/26 04:53:23;;;;;;;4.03;1.08;;;;;;;7.14;100.00;99330.75;5067577;28;20044;-67
2023/03/26 04:56:26;;;;;;;5.97;1.27;;;;;;;7.13;100.00;99323.81;5068889;28;20040;-67
2023/03/26 04:59:17;;;;;;;3.42;1.33;;;;;;;7.15;100.00;99316.53;5067195;28;20086;-66
2023/03/26 05:01:44;;;;;;;4.43;1.30;;;;;;;7.20;100.00;99314.19;5067245;28;20423;-66
2023/03/26 05:04:12;;;;;;;3.00;1.20;;;;;;;7.23;100.00;99311.16;5067273;28;20066;-66
2023/03/26 05:06:40;;;;;;;4.07;1.17;;;;;;;7.22;100.00;99295.47;5067119;28;20375;-66
2023/03/26 05:09:14;;;;;;;3.45;1.08;;;;;;;7.11;100.00;99283.44;5067086;28;20102;-66
2023/03/26 05:11:58;;;;;;;4.53;1.75;;;;;;;7.17;100.00;99284.56;5068413;28;20467;-66
2023/03/26 05:14:24;;;;;;;5.35;1.10;;;;;;;7.12;100.00;99290.41;5068358;28;20040;-67
2023/03/26 05:16:52;;;;;;;2.40;0.88;;;;;;;7.21;100.00;99280.56;5066692;28;20099;-66
2023/03/26 05:19:18;;;;;;;3.67;1.20;;;;;;;7.21;100.00;99280.56;5066797;28;20064;-66
2023/03/26 05:21:44;;;;;;;3.22;1.20;;;;;;;7.27;100.00;99275.41;5066768;28;20154;-66
2023/03/26 05:24:10;;;;;;;2.97;1.30;;;;;;;7.27;100.00;99264.81;5083687;28;20127;-66
2023/03/26 05:26:36;;;;;;;3.53;0.90;;;;;;;7.26;100.00;99270.28;5066725;28;20211;-66
2023/03/26 05:29:03;;;;;;;2.58;1.08;;;;;;;7.27;100.00;99262.16;5083419;28;20033;-66
2023/03/26 05:31:34;;;;;;;1.70;1.17;;;;;;;7.24;100.00;99253.75;5066696;28;20082;-66
2023/03/26 05:34:02;;;;;;;1.90;1.10;;;;;;;7.30;100.00;99235.31;5052812;28;20060;-65
2023/03/26 05:36:27;;;;;;;1.10;1.00;;;;;;;7.31;100.00;99226.38;5053333;28;20506;-66
2023/03/26 05:39:03;;;;;;;3.88;1.30;;;;;;;7.34;100.00;99218.06;5053095;28;20063;-67
2023/03/26 05:42:06;;;;;;;2.08;0.90;;;;;;;7.38;100.00;99205.28;5012533;28;20144;-65
2023/03/26 05:44:44;;;;;;;1.38;1.00;;;;;;;7.43;100.00;99208.22;5031800;28;20460;-66
2023/03/26 05:47:17;;;;;;;2.88;1.20;;;;;;;7.45;100.00;99208.06;5069730;28;20108;-67
2023/03/26 05:49:43;;;;;;;1.42;0.80;;;;;;;7.45;100.00;99206.22;5054433;28;20091;-66
2023/03/26 05:52:08;;;;;;;5.57;1.65;;;;;;;7.52;100.00;99198.38;5053187;28;20098;-66
2023/03/26 05:55:03;;;;;;;9.43;3.00;;;;;;;7.54;100.00;99191.06;5029886;28;20052;-67
2023/03/26 05:57:47;;;;;;;3.85;2.08;;;;;;;7.55;100.00;99182.94;5053905;28;20052;-66
2023/03/26 06:00:33;;;;;;;2.20;1.27;;;;;;;7.54;100.00;99177.81;5032984;28;20079;-65
2023/03/26 06:02:59;;;;;;;5.00;1.35;;;;;;;7.53;100.00;99176.19;5052842;28;20071;-66
2023/03/26 06:05:43;;;;;;;1.85;1.20;;;;;;;7.54;100.00;99180.47;5054115;28;20055;-66
2023/03/26 06:08:15;;;;;;;4.78;1.85;;;;;;;7.58;100.00;99174.63;5052650;28;20043;-66
2023/03/26 06:10:49;;;;;;;1.98;1.35;;;;;;;7.60;100.00;99167.31;5054114;28;20079;-67
2023/03/26 06:13:16;;;;;;;8.10;2.22;;;;;;;7.66;100.00;99163.13;5069497;28;20040;-66
2023/03/26 06:15:42;;;;;;;5.07;1.93;;;;;;;7.66;100.00;99165.78;5052786;28;20037;-66
2023/03/26 06:18:35;;;;;;;4.40;1.85;;;;;;;7.72;100.00;99164.25;5051408;28;20299;-66
2023/03/26 06:21:24;;;;;;;2.35;1.65;;;;;;;7.76;100.00;99154.91;5043327;28;20140;-64
2023/03/26 06:23:55;;;;;;;1.92;1.10;;;;;;;7.79;100.00;99151.91;5069366;28;20033;-66
2023/03/26 06:26:39;;;;;;;1.35;0.70;;;;;;;7.78;100.00;99156.38;5054112;28;20047;-66
2023/03/26 06:29:18;;;;;;;4.85;1.30;;;;;;;7.82;100.00;99156.81;5052364;28;20067;-65
2023/03/26 06:32:04;;;;;;;2.72;1.42;;;;;;;7.85;100.00;99143.22;5053383;28;20069;-67
2023/03/26 06:34:40;;;;;;;5.85;1.20;;;;;;;7.87;100.00;99138.56;5052420;28;20468;-67
2023/03/26 06:37:06;;;;;;;3.78;1.30;;;;;;;7.89;100.00;99136.56;5051868;28;20041;-68
2023/03/26 06:39:31;;;;;;;0.88;0.80;;;;;;;7.91;100.00;99139.03;5052218;28;20432;-67
2023/03/26 06:42:10;;;;;;;3.17;1.25;;;;;;;7.98;100.00;99151.38;5052110;28;20577;-68
2023/03/26 06:44:45;;;;;;;7.38;1.33;;;;;;;8.01;100.00;99158.94;5048379;28;20127;-67
2023/03/26 06:47:34;;;;;;;2.90;1.70;;;;;;;8.09;100.00;99152.75;5036165;28;20119;-67
2023/03/26 06:50:33;;;;;;;9.13;1.80;;;;;;;8.07;100.00;99150.25;5052152;28;20033;-68
2023/03/26 06:53:22;;;;;;;5.68;1.35;;;;;;;8.12;100.00;99144.41;5068617;28;20041;-68
2023/03/26 06:55:55;;;;;;;2.53;1.25;;;;;;;8.20;100.00;99136.34;5051886;28;20124;-67
2023/03/26 06:58:52;;;;;;;1.88;1.00;;;;;;;8.33;100.00;99139.16;5068468;28;20040;-60
2023/03/26 07:01:53;;;;;;;0.60;0.60;;;;;;;8.28;100.00;99130.97;5036052;28;20099;-60
2023/03/26 07:04:37;;;;;;;2.60;1.45;;;;;;;8.30;100.00;99122.81;5052680;28;20056;-68
2023/03/26 07:07:23;;;;;;;5.60;1.33;;;;;;;8.25;100.00;99118.03;5052499;28;20129;-68
2023/03/26 07:10:08;;;;;;;3.60;1.48;;;;;;;8.17;100.00;99131.41;5052864;28;20528;-68
2023/03/26 07:12:54;;;;;;;0.75;0.70;;;;;;;8.17;100.00;99128.78;5051650;28;20060;-68
2023/03/26 07:15:47;;;;;;;3.58;1.33;;;;;;;8.12;100.00;99126.66;5052555;28;20389;-67
2023/03/26 07:18:29;;;;;;;9.68;1.40;;;;;;;8.11;100.00;99124.19;5051206;28;20048;-67
2023/03/26 07:20:54;;;;;;;1.48;1.13;;;;;;;8.12;100.00;99126.66;5051197;28;20037;-68
2023/03/26 07:23:21;;;;;;;2.13;0.90;;;;;;;8.13;100.00;99124.81;5067992;28;20067;-67
2023/03/26 07:26:26;;;;;;;3.85;1.35;;;;;;;8.12;100.00;99105.44;5031495;28;20053;-68
2023/03/26 07:29:27;;;;;;;1.63;1.30;;;;;;;8.11;100.00;99103.78;5031223;28;20033;-68
2023/03/26 07:32:51;;;;;;;1.50;0.80;;;;;;;8.07;100.00;99102.50;5029601;28;20072;-67
2023/03/26 07:35:53;;;;;;;4.80;1.70;;;;;;;8.04;100.00;99080.84;5047865;28;20033;-67
2023/03/26 07:39:26;;;;;;;3.95;1.90;;;;;;;8.02;100.00;99066.94;5047518;28;20396;-68
2023/03/26 07:42:29;;;;;;;2.22;1.25;;;;;;;8.04;100.00;99059.63;5001579;28;20141;-67
2023/03/26 07:45:36;;;;;;;7.80;1.23;;;;;;;8.08;100.00;99059.06;4990481;28;20538;-68
2023/03/26 07:48:28;;;;;;;4.65;1.23;;;;;;;8.09;100.00;99041.34;5051421;28;20440;-67
2023/03/26 07:51:04;;;;;;;3.65;1.10;;;;;;;7.94;100.00;99028.09;5050900;28;20120;-68
2023/03/26 07:53:50;;;;;;;1.33;0.88;;;;;;;8.23;100.00;99058.22;5050966;28;20494;-68
2023/03/26 07:56:47;;;;;;;4.60;1.10;;;;;;;8.19;100.00;99041.84;5041421;28;20059;-67
2023/03/26 07:59:35;;;;;;;6.45;1.08;;;;;;;8.13;100.00;99043.41;5052022;28;20037;-68
2023/03/26 08:02:40;;;;;;;1.60;1.10;;;;;;;8.10;100.00;99048.28;5051803;28;20055;-68
2023/03/26 08:06:06;;;;;;;3.90;1.33;;;;;;;8.10;100.00;99042.97;5050907;28;20045;-67
2023/03/26 08:09:02;;;;;;;5.20;1.52;;;;;;;8.08;100.00;99044.97;5021349;28;20114;-64
2023/03/26 08:11:56;;;;;;;;;;;;;;;8.11;100.00;99060.53;5051551;28;20120;-66
2023/03/26 08:14:50;;;;;;;3.50;1.10;;;;;;;8.10;100.00;99057.06;5051940;28;19917;-67
2023/03/26 08:17:27;;;;;;;3.50;1.15;;;;;;;8.09;100.00;99051.97;5051438;28;20473;-67
2023/03/26 08:20:25;;;;;;;6.47;1.10;;;;;;;8.11;100.00;99063.19;5051982;28;20029;-66
2023/03/26 08:22:59;;;;;;;4.57;1.50;;;;;;;8.07;100.00;99059.25;5051752;28;20051;-66
2023/03/26 08:25:32;;;;;;;3.92;1.58;;;;;;;8.15;100.00;99051.22;5051746;28;20037;-67
2023/03/26 08:28:11;;;;;;;3.38;1.70;;;;;;;8.12;100.00;99052.38;5051516;28;20033;-61
2023/03/26 08:30:36;;;;;;;11.93;1.40;;;;;;;8.07;100.00;99025.59;5052002;28;20059;-63
2023/03/26 08:33:15;;;;;;;4.00;1.20;;;;;;;8.14;100.00;99047.72;5051769;28;20478;-60
2023/03/26 08:35:41;;;;;;;7.45;2.38;;;;;;;8.29;100.00;99039.75;5051674;28;20045;-62
2023/03/26 08:38:12;;;;;;;3.72;1.30;;;;;;;8.40;100.00;99038.44;5051470;28;20436;-61
2023/03/26 08:40:56;;;;;;;2.40;1.13;;;;;;;8.51;100.00;99034.47;5051721;28;20041;-64
2023/03/26 08:44:08;;;;;;;5.78;1.60;;;;;;;8.49;100.00;99005.47;5051804;28;20389;-63
2023/03/26 08:46:45;;;;;;;3.15;1.70;;;;;;;8.94;100.00;99041.41;5051754;28;20509;-64
2023/03/26 08:49:31;;;;;;;5.43;1.15;;;;;;;9.10;100.00;99037.63;5051687;28;20033;-56
2023/03/26 08:52:33;;;;;;;2.28;1.30;;;;;;;9.07;100.00;99021.28;5052150;28;20084;-60
2023/03/26 08:55:41;;;;;;;4.05;1.75;;;;;;;9.06;100.00;99017.78;5051589;28;20045;-61
2023/03/26 08:58:24;;;;;;;5.40;1.50;;;;;;;9.29;100.00;99037.97;5050886;28;20421;-60
2023/03/26 09:01:18;;;;;;;4.22;2.00;;;;;;;9.36;100.00;99037.00;5051381;28;20100;-62
2023/03/26 09:04:12;;;;;;;3.28;1.88;;;;;;;9.48;100.00;99021.34;5051516;28;20086;-61
2023/03/26 09:07:06;;;;;;;3.58;1.45;;;;;;;9.58;100.00;99016.47;5051482;28;20486;-62
2023/03/26 09:10:13;;;;;;;8.35;1.58;;;;;;;9.81;100.00;99016.19;5054082;28;20120;-63
2023/03/26 09:13:18;;;;;;;2.28;1.20;;;;;;;10.02;100.00;99017.91;5053927;28;20647;-62
2023/03/26 09:16:05;;;;;;;9.23;2.13;;;;;;;9.99;100.00;99015.66;5053898;28;20479;-64
2023/03/26 09:19:09;;;;;;;2.38;1.70;;;;;;;10.02;100.00;99009.94;5054792;28;20109;-66
2023/03/26 09:22:05;;;;;;;1.75;1.40;;;;;;;10.03;100.00;98999.06;5046670;28;20059;-63
2023/03/26 09:24:59;;;;;;;3.22;1.55;;;;;;;10.37;100.00;99010.69;5054928;28;20037;-60
2023/03/26 09:27:49;;;;;;;4.40;1.50;;;;;;;10.85;100.00;99007.88;5054622;28;20509;-65
2023/03/26 09:30:39;;;;;;;3.15;1.50;;;;;;;11.26;100.00;99012.13;5054808;28;20410;-64
2023/03/26 09:33:13;;;;;;;2.30;1.38;;;;;;;11.59;100.00;99004.88;5054701;28;20044;-64
2023/03/26 09:36:00;;;;;;;4.32;2.03;;;;;;;12.16;100.00;99005.91;5054730;28;20048;-64
2023/03/26 09:38:33;;;;;;;3.03;1.77;;;;;;;12.57;100.00;98990.47;5054306;28;20490;-64
2023/03/26 09:41:14;;;;;;;2.70;1.17;;;;;;;12.99;100.00;98986.25;5054628;28;20036;-64
2023/03/26 09:44:12;;;;;;;6.75;1.50;;;;;;;13.27;100.00;98983.13;5054567;28;20055;-64
2023/03/26 09:46:46;;;;;;;5.50;1.45;;;;;;;13.54;89.89;98980.97;5054556;28;20029;-64
2023/03/26 09:49:45;;;;;;;3.42;1.20;;;;;;;13.59;89.51;98981.13;5053128;28;20132;-64
2023/03/26 09:52:39;;;;;;;2.25;1.63;;;;;;;13.58;87.77;98976.84;5054272;28;20037;-65
2023/03/26 09:55:19;;;;;;;4.88;1.33;;;;;;;13.50;89.96;98969.94;5053822;28;20072;-65
2023/03/26 09:57:57;;;;;;;2.33;1.08;;;;;;;13.56;88.28;98973.53;5053372;28;20036;-65
2023/03/26 10:00:49;;;;;;;4.07;1.50;;;;;;;13.73;87.54;98971.91;5053966;28;20037;-64
2023/03/26 10:03:33;;;;;;;1.98;1.05;;;;;;;13.65;80.23;98971.41;5053766;28;20033;-65
2023/03/26 10:06:14;;;;;;;2.90;1.20;;;;;;;14.22;81.34;98967.38;5054034;28;20489;-65
2023/03/26 10:08:52;;;;;;;3.78;1.05;;;;;;;14.39;77.60;98968.34;5053772;28;20117;-65
2023/03/26 10:11:21;;;;;;;;;;;;;;;14.60;71.41;98960.84;5054355;28;20051;-64
2023/03/26 10:14:07;;;;;;;7.70;1.02;;;;;;;14.81;67.55;98960.31;5052563;28;20000;-64
2023/03/26 10:16:51;;;;;;;3.13;1.30;;;;;;;15.25;67.41;98963.44;5053751;28;20032;-65
2023/03/26 10:19:33;;;;;;;3.70;1.00;;;;;;;15.30;61.96;98966.25;5053121;28;20478;-65
2023/03/26 10:22:36;;;;;;;1.25;0.80;;;;;;;15.44;60.36;98961.44;5053503;28;20033;-65
2023/03/26 10:25:21;;;;;;;2.83;0.85;;;;;;;15.64;59.43;98959.22;5052176;28;20037;-64
2023/03/26 10:28:06;;;;;;;0.93;0.70;;;;;;;16.01;56.18;98965.06;5053183;28;20025;-65
2023/03/26 10:30:54;;;;;;;1.92;0.73;;;;;;;15.67;55.33;98969.50;5022342;28;20053;-66
2023/03/26 10:33:29;;;;;;;0.75;0.40;;;;;;;16.32;54.94;98976.41;5053539;28;20036;-66
2023/03/26 10:36:10;;;;;;;2.53;1.05;;;;;;;16.85;51.60;98964.41;5052214;28;20033;-66
2023/03/26 10:39:01;;;;;;;2.42;0.50;;;;;;;17.23;49.83;98954.75;5053175;28;20078;-65
2023/03/26 10:41:40;;;;;;;2.03;0.50;;;;;;;17.59;47.17;98961.44;5053489;28;20688;-65
2023/03/26 10:44:29;;;;;;;1.58;0.73;;;;;;;17.73;46.19;98957.31;5053569;28;20504;-63
2023/03/26 10:47:21;;;;;;;4.18;0.63;;;;;;;18.42;44.89;98951.34;5053067;28;20040;-65
2023/03/26 10:50:14;;;;;;;0.43;0.32;;;;;;;18.41;41.79;98960.50;5053257;28;20108;-66
2023/03/26 10:52:51;;;;;;;1.33;0.65;;;;;;;18.69;43.53;98945.94;5052863;28;20577;-67
2023/03/26 10:55:21;;;;;;;2.30;0.60;;;;;;;18.93;40.72;98941.00;5052929;28;20033;-66
2023/03/26 10:57:57;;;;;;;0.75;0.50;;;;;;;19.43;42.19;98951.31;5052534;28;20029;-66
2023/03/26 11:00:25;;;;;;;0.87;0.40;;;;;;;19.85;40.65;98953.13;5053047;28;20037;-67
2023/03/26 11:02:50;;;;;;;;;;;;;;;20.01;41.42;98951.28;5053382;28;20062;-64
2023/03/26 11:05:25;;;;;;;1.30;0.60;;;;;;;19.97;39.25;98971.81;5052836;28;19912;-67
2023/03/26 11:07:50;;;;;;;0.40;0.40;;;;;;;19.93;37.54;98960.72;5052471;28;20112;-66
2023/03/26 11:10:29;;;;;;;2.05;0.38;;;;;;;19.17;37.63;98947.66;5052711;28;20123;-67
2023/03/26 11:13:03;;;;;;;1.20;0.63;;;;;;;19.74;38.39;98962.25;5052975;28;20632;-65
2023/03/26 11:15:32;;;;;;;0.90;0.40;;;;;;;19.68;37.17;98968.72;5051146;28;20033;-65
2023/03/26 11:18:53;;;;;;;1.27;0.50;;;;;;;19.77;37.74;98949.06;5052307;28;20037;-65
2023/03/26 11:21:31;;;;;;;1.85;0.50;;;;;;;19.28;38.75;98978.19;5028346;28;20413;-66
2023/03/26 11:24:05;;;;;;;3.35;0.57;;;;;;;19.80;37.47;98966.63;5052592;28;20087;-65
2023/03/26 11:26:55;;;;;;;1.13;0.60;;;;;;;18.65;38.50;98964.50;5052287;28;20043;-65
2023/03/26 11:30:02;;;;;;;1.50;0.30;;;;;;;19.45;39.12;98980.75;5051233;28;20040;-66
2023/03/26 11:32:40;;;;;;;0.82;0.32;;;;;;;19.63;39.20;98979.53;5051117;28;20110;-66
2023/03/26 11:35:15;;;;;;;2.17;0.40;;;;;;;20.09;37.46;98971.59;5052258;28;20041;-65
2023/03/26 11:37:45;;;;;;;1.27;0.40;;;;;;;20.56;36.96;98968.72;5051869;28;20044;-67
2023/03/26 11:40:26;;;;;;;2.10;0.57;;;;;;;19.98;36.56;98963.44;5051947;28;20049;-65
2023/03/26 11:42:58;;;;;;;0.77;0.50;;;;;;;20.47;36.70;98973.03;5051697;28;20033;-65
2023/03/26 11:45:28;;;;;;;2.25;0.65;;;;;;;20.36;36.62;98952.47;5051584;28;20040;-66
2023/03/26 11:48:13;;;;;;;0.85;0.40;;;;;;;20.98;35.83;98949.50;5051734;28;20040;-65
2023/03/26 11:50:46;;;;;;;1.17;0.43;;;;;;;21.17;36.39;98965.19;5052032;28;20033;-66
2023/03/26 11:53:16;;;;;;;2.40;0.70;;;;;;;21.76;34.96;98953.66;5052283;28;20091;-66
2023/03/26 11:56:13;;;;;;;1.65;0.73;;;;;;;21.39;35.19;98963.81;5052003;28;20039;-66
2023/03/26 11:59:01;;;;;;;0.55;0.45;;;;;;;21.11;34.72;98964.38;5051786;28;20025;-66
2023/03/26 12:01:51;;;;;;;1.40;0.38;;;;;;;21.47;34.14;98957.03;5050722;28;20036;-66
2023/03/26 12:04:23;;;;;;;0.50;0.30;;;;;;;21.78;32.91;98960.44;5051913;28;20037;-65
2023/03/26 12:06:56;;;;;;;2.58;0.80;;;;;;;21.26;33.67;98950.84;5051649;28;20075;-66
2023/03/26 12:09:22;;;;;;;1.05;0.60;;;;;;;21.81;34.04;98950.94;5051610;28;20041;-66
2023/03/26 12:11:54;;;;;;;0.50;0.40;;;;;;;22.22;35.42;98956.97;5051671;28;20032;-66
2023/03/26 12:14:25;;;;;;;2.67;0.57;;;;;;;21.35;32.97;98942.97;5050275;28;20051;-66
2023/03/26 12:17:10;;;;;;;0.82;0.60;;;;;;;21.36;33.37;98950.81;5051058;28;20053;-66
2023/03/26 12:19:41;;;;;;;0.80;0.55;;;;;;;20.53;34.15;98936.78;5051134;28;20501;-66
2023/03/26 12:22:25;;;;;;;5.18;2.63;;;;;;;20.70;34.48;98937.34;5050771;28;20036;-65
2023/03/26 12:25:14;;;;;;;0.95;0.38;;;;;;;20.93;34.77;98924.34;5049723;28;20108;-65
2023/03/26 12:27:48;;;;;;;1.25;0.70;;;;;;;20.51;35.08;98926.25;5047436;28;20029;-66
2023/03/26 12:30:26;;;;;;;1.30;0.70;;;;;;;20.47;35.56;98913.53;5051310;28;20558;-65
2023/03/26 12:32:55;;;;;;;;;;;;;;;21.65;35.17;98904.16;5051410;28;20375;-65
2023/03/26 12:35:26;;;;;;;1.10;0.50;;;;;;;21.84;33.42;98913.25;5051159;28;20327;-64
2023/03/26 12:37:53;;;;;;;1.88;0.60;;;;;;;21.73;32.70;98919.00;5051000;28;20037;-64
2023/03/26 12:40:26;;;;;;;0.98;0.60;;;;;;;20.29;32.40;98899.44;5051401;28;20025;-64
2023/03/26 12:43:03;;;;;;;0.45;0.30;;;;;;;19.03;33.56;98908.69;5050926;28;20071;-64
2023/03/26 12:45:28;;;;;;;;;;;;;;;19.25;36.50;98906.66;5053630;28;20609;-64
2023/03/26 12:47:56;;;;;;;1.70;0.63;;;;;;;18.09;36.74;98901.16;5055055;28;19917;-64
2023/03/26 12:50:30;;;;;;;0.98;0.47;;;;;;;18.05;38.00;98908.13;5055250;28;20045;-64
2023/03/26 12:53:30;;;;;;;0.43;0.30;;;;;;;17.85;37.24;98904.13;5055270;28;20406;-64
2023/03/26 12:56:05;;;;;;;0.77;0.45;;;;;;;18.27;37.91;98887.34;5031363;28;20123;-63
2023/03/26 12:58:43;;;;;;;1.10;0.60;;;;;;;19.19;37.90;98886.13;5054980;28;20648;-64
2023/03/26 13:01:16;;;;;;;0.98;0.43;;;;;;;19.64;37.90;98883.91;5055081;28;20028;-65
2023/03/26 13:04:09;;;;;;;0.77;0.63;;;;;;;19.65;36.65;98899.03;5055022;28;20037;-66
2023/03/26 13:06:52;;;;;;;1.48;0.63;;;;;;;19.37;37.60;98898.34;5054972;28;20032;-66
2023/03/26 13:09:26;;;;;;;0.85;0.38;;;;;;;19.07;35.24;98893.59;5053706;28;20052;-64
2023/03/26 13:12:03;;;;;;;0.68;0.43;;;;;;;18.60;37.17;98878.16;5053092;28;20029;-65
2023/03/26 13:14:51;;;;;;;1.83;0.57;;;;;;;18.22;37.64;98881.88;5052573;28;20112;-65
2023/03/26 13:17:21;;;;;;;1.73;0.77;;;;;;;17.53;38.35;98892.44;5053261;28;20036;-65
2023/03/26 13:20:11;;;;;;;3.05;0.50;;;;;;;17.67;38.75;98874.00;5052428;28;20056;-65
2023/03/26 13:23:03;;;;;;;0.35;0.35;;;;;;;17.00;37.89;98875.88;5053441;28;20053;-64
2023/03/26 13:25:54;;;;;;;0.50;0.30;;;;;;;16.76;39.25;98882.53;5051076;28;20051;-65
2023/03/26 13:28:55;;;;;;;3.15;0.57;;;;;;;16.18;38.82;98872.97;5053461;28;20041;-65
2023/03/26 13:31:48;;;;;;;2.03;0.38;;;;;;;16.04;41.39;98883.22;5053598;28;20059;-65
2023/03/26 13:34:17;;;;;;;1.13;0.45;;;;;;;15.84;41.49;98883.63;5052843;28;20052;-64
2023/03/26 13:37:11;;;;;;;0.90;0.35;;;;;;;15.81;41.41;98888.69;5054138;28;20090;-66
2023/03/26 13:39:56;;;;;;;1.17;0.50;;;;;;;15.71;41.10;98894.66;5054101;28;20493;-65
2023/03/26 13:42:49;;;;;;;2.92;0.50;;;;;;;15.53;41.50;98886.78;5054781;28;20036;-65
2023/03/26 13:45:38;;;;;;;0.75;0.38;;;;;;;15.51;41.27;98891.53;5046490;28;20080;-65
2023/03/26 13:48:10;;;;;;;1.15;0.43;;;;;;;15.52;41.56;98893.19;5054258;28;20470;-65
2023/03/26 13:50:40;;;;;;;0.55;0.47;;;;;;;15.10;41.38;98902.25;5054594;28;20041;-64
2023/03/26 13:53:24;;;;;;;1.00;0.35;;;;;;;14.51;42.86;98911.34;5054072;28;20136;-65
2023/03/26 13:55:54;;;;;;;0.98;0.32;;;;;;;14.29;45.21;98922.56;5054347;28;20112;-65
2023/03/26 13:58:32;;;;;;;1.45;0.40;;;;;;;14.01;46.80;98938.41;5054058;28;20071;-64
2023/03/26 14:01:08;;;;;;;3.42;0.75;;;;;;;13.83;49.53;98941.94;5054271;28;20029;-65
2023/03/26 14:03:41;;;;;;;1.80;0.57;;;;;;;13.46;57.80;98962.56;5054305;28;20394;-64
2023/03/26 14:06:32;;;;;;;0.73;0.55;;;;;;;13.16;64.12;98968.59;5054175;28;20490;-65
2023/03/26 14:09:21;;;;;;;1.73;0.30;;;;;;;12.52;71.68;98987.63;5054911;28;20024;-64
2023/03/26 14:11:56;;;;;;;1.17;0.30;;;;;;;11.79;75.34;99001.31;5053818;28;20062;-65
2023/03/26 14:14:27;;;;;;;2.13;0.40;;;;;;;11.60;74.80;99006.50;5054110;28;20067;-65
2023/03/26 14:16:58;;;;;;;1.52;0.57;;;;;;;11.29;79.07;99009.06;5069653;28;20111;-65
2023/03/26 14:19:42;;;;;;;1.00;0.30;;;;;;;10.80;82.78;99019.13;5073908;28;20035;-65
2023/03/26 14:22:29;;;;;;;0.70;0.60;;;;;;;10.81;85.87;99027.94;5073852;28;20085;-65
2023/03/26 14:25:03;;;;;;;1.48;0.50;;;;;;;10.32;92.71;99039.75;5073965;28;20070;-65
2023/03/26 14:28:01;;;;;;;0.80;0.60;;;;;;;9.85;98.02;99051.22;5072940;28;20033;-64
2023/03/26 14:30:57;;;;;;;0.98;0.60;;;;;;;9.42;100.00;99046.88;5073760;28;20029;-65
2023/03/26 14:33:47;;;;;;;0.73;0.70;;;;;;;9.21;100.00;99046.94;5073796;28;20040;-66
2023/03/26 14:36:32;;;;;;;2.45;0.60;;;;;;;9.12;100.00;99040.09;5052227;28;20029;-65
2023/03/26 14:39:28;;;;;;;0.50;0.40;;;;;;;9.00;100.00;99031.00;5033406;28;20037;-65
2023/03/26 14:42:24;;;;;;;2.17;0.80;;;;;;;9.01;100.00;99035.34;5033680;28;20068;-64
2023/03/26 14:45:14;;;;;;;1.05;0.47;;;;;;;8.77;100.00;99028.59;5033583;28;20037;-63
2023/03/26 14:48:12;;;;;;;0.63;0.30;;;;;;;8.72;100.00;99018.53;5033287;28;20071;-64
2023/03/26 14:51:01;;;;;;;2.40;0.65;;;;;;;8.51;100.00;99014.06;5033350;28;20120;-63
2023/03/26 14:53:34;;;;;;;2.20;0.60;;;;;;;8.46;100.00;99023.59;5033618;28;20029;-65
2023/03/26 14:56:29;;;;;;;2.70;0.80;;;;;;;8.44;100.00;99026.44;5033467;28;20049;-64
2023/03/26 14:59:16;;;;;;;1.75;0.90;;;;;;;8.43;100.00;99022.97;5033167;28;20086;-61
2023/03/26 15:02:00;;;;;;;1.90;1.00;;;;;;;8.40;100.00;99020.69;5033379;28;20033;-64
2023/03/26 15:04:31;;;;;;;1.45;0.75;;;;;;;8.39;100.00;99013.72;5033012;28;20034;-58
2023/03/26 15:07:29;;;;;;;1.20;0.80;;;;;;;8.21;100.00;99008.00;5032363;28;20040;-60
2023/03/26 15:10:13;;;;;;;0.80;0.80;;;;;;;8.25;100.00;99003.97;5033210;28;20033;-61
2023/03/26 15:13:00;;;;;;;3.22;1.00;;;;;;;8.19;100.00;98994.09;5033016;28;20037;-59
2023/03/26 15:15:56;;;;;;;0.95;0.80;;;;;;;8.30;100.00;98984.84;5033059;28;20398;-60
2023/03/26 15:18:24;;;;;;;0.70;0.60;;;;;;;8.31;100.00;98989.94;5032688;28;20515;-60
2023/03/26 15:21:08;;;;;;;2.63;0.73;;;;;;;8.31;100.00;98989.13;5032859;28;20073;-62
2023/03/26 15:23:42;;;;;;;1.55;0.50;;;;;;;8.25;100.00;98980.09;5032903;28;20050;-63
2023/03/26 15:26:45;;;;;;;0.40;0.40;;;;;;;8.23;100.00;98984.78;5032738;28;20506;-62
2023/03/26 15:29:30;;;;;;;1.10;0.65;;;;;;;8.21;100.00;98991.25;5032512;28;20087;-61
2023/03/26 15:31:56;;;;;;;1.00;0.90;;;;;;;8.19;100.00;98994.09;5032691;28;20041;-56
2023/03/26 15:34:42;;;;;;;0.90;0.63;;;;;;;8.19;100.00;98994.09;5032470;28;20037;-60
2023/03/26 15:37:22;;;;;;;2.05;0.70;;;;;;;8.16;100.00;98997.16;5032436;28;20108;-58
2023/03/26 15:40:19;;;;;;;2.25;0.63;;;;;;;8.10;100.00;99000.56;5032579;28;20057;-62
2023/03/26 15:43:00;;;;;;;4.32;0.93;;;;;;;8.11;100.00;99000.34;5032568;28;20034;-58
2023/03/26 15:45:33;;;;;;;0.93;0.80;;;;;;;8.21;100.00;99005.34;5032550;28;20043;-59
2023/03/26 15:48:11;;;;;;;1.70;0.60;;;;;;;8.19;100.00;99007.38;5032450;28;20029;-66
2023/03/26 15:51:14;;;;;;;1.23;0.60;;;;;;;8.16;100.00;98991.84;5032281;28;20061;-65
2023/03/26 15:53:53;;;;;;;3.00;0.52;;;;;;;8.10;100.00;98993.41;5032305;28;20069;-66
2023/03/26 15:56:30;;;;;;;1.25;0.85;;;;;;;8.25;100.00;98992.53;5032281;28;20461;-66
2023/03/26 15:59:10;;;;;;;1.60;1.05;;;;;;;8.12;100.00;98985.25;5032137;28;20045;-65
2023/03/26 16:01:46;;;;;;;1.27;0.75;;;;;;;8.31;100.00;98997.09;5032149;28;20029;-66
2023/03/26 16:04:34;;;;;;;1.10;0.75;;;;;;;8.29;100.00;99002.59;5032200;28;20467;-66
2023/03/26 16:07:10;;;;;;;0.88;0.70;;;;;;;8.37;100.00;99007.81;5031897;28;20483;-65
2023/03/26 16:09:37;;;;;;;1.90;0.90;;;;;;;8.31;100.00;99013.00;5032135;28;20136;-66
2023/03/26 16:12:26;;;;;;;2.42;0.57;;;;;;;8.27;100.00;99027.66;5032069;28;20084;-64
2023/03/26 16:15:08;;;;;;;0.35;0.35;;;;;;;8.25;100.00;99030.50;5032221;28;20037;-66
2023/03/26 16:18:04;;;;;;;0.60;0.40;;;;;;;8.20;100.00;99032.88;5031523;28;20047;-64
2023/03/26 16:20:49;;;;;;;0.40;0.40;;;;;;;8.26;100.00;99032.13;5031897;28;20091;-64
2023/03/26 16:23:53;;;;;;;1.95;0.77;;;;;;;8.33;100.00;99035.69;5032065;28;20037;-64
2023/03/26 16:26:35;;;;;;;1.35;0.68;;;;;;;8.22;100.00;99044.16;5031931;28;20033;-64
2023/03/26 16:29:13;;;;;;;0.50;0.50;;;;;;;8.31;100.00;99050.16;5031655;28;20030;-64
2023/03/26 16:32:03;;;;;;;0.63;0.60;;;;;;;8.26;100.00;99057.84;5031815;28;20037;-63
2023/03/26 16:34:46;;;;;;;3.55;0.70;;;;;;;8.20;100.00;99059.41;5031799;28;20034;-64
2023/03/26 16:37:30;;;;;;;0.93;0.63;;;;;;;8.22;100.00;99052.09;5031524;28;20052;-65
2023/03/26 16:40:16;;;;;;;0.75;0.50;;;;;;;8.30;100.00;99054.63;5031852;28;20033;-64
2023/03/26 16:43:00;;;;;;;0.55;0.55;;;;;;;8.32;100.00;99063.22;5034734;28;20063;-64
2023/03/26 16:45:33;;;;;;;2.67;0.60;;;;;;;8.28;100.00;99055.81;5051555;28;20112;-64
2023/03/26 16:48:22;;;;;;;3.00;0.45;;;;;;;8.23;100.00;99059.06;5051311;28;20041;-63
2023/03/26 16:51:05;;;;;;;0.77;0.77;;;;;;;8.30;100.00;99059.13;5051684;28;20087;-64
2023/03/26 16:53:40;;;;;;;0.30;0.30;;;;;;;8.33;100.00;99067.53;5051557;28;20039;-63
2023/03/26 16:56:42;;;;;;;0.73;0.50;;;;;;;8.37;100.00;99066.19;5051296;28;20067;-64
2023/03/26 16:59:27;;;;;;;1.35;0.75;;;;;;;8.27;100.00;99057.66;5000136;28;20632;-64
2023/03/26 17:02:05;;;;;;;0.85;0.65;;;;;;;8.29;100.00;99068.09;5051225;28;20056;-64
2023/03/26 17:04:32;;;;;;;0.40;0.40;;;;;;;8.24;100.00;99051.91;5051505;28;20504;-64
2023/03/26 17:07:12;;;;;;;2.03;0.80;;;;;;;8.24;100.00;99063.34;5051081;28;20048;-65